sensor_id;sensor_type;location;lat;lon;timestamp;temperature;humidity
8459;DHT22;4266;48.816;9.154;2024-02-21T00:00:56;6.80;91.90
8459;DHT22;4266;48.816;9.154;2024-02-21T00:03:22;6.70;91.80
8459;DHT22;4266;48.816;9.154;2024-02-21T00:05:48;6.60;92.10
8459;DHT22;4266;48.816;9.154;2024-02-21T00:08:14;6.50;92.20
8459;DHT22;4266;48.816;9.154;2024-02-21T00:10:40;6.50;92.40
8459;DHT22;4266;48.816;9.154;2024-02-21T00:13:06;6.50;92.30
8459;DHT22;4266;48.816;9.154;2024-02-21T00:15:32;6.50;92.30
8459;DHT22;4266;48.816;9.154;2024-02-21T00:17:58;6.50;92.30
8459;DHT22;4266;48.816;9.154;2024-02-21T00:20:23;6.50;92.20
8459;DHT22;4266;48.816;9.154;2024-02-21T00:22:49;6.60;92.10
8459;DHT22;4266;48.816;9.154;2024-02-21T00:25:15;6.60;91.90
8459;DHT22;4266;48.816;9.154;2024-02-21T00:27:40;6.70;91.90
8459;DHT22;4266;48.816;9.154;2024-02-21T00:30:07;6.60;91.90
8459;DHT22;4266;48.816;9.154;2024-02-21T00:32:33;6.60;91.70
8459;DHT22;4266;48.816;9.154;2024-02-21T00:35:00;6.70;91.60
8459;DHT22;4266;48.816;9.154;2024-02-21T00:37:25;6.70;91.50
8459;DHT22;4266;48.816;9.154;2024-02-21T00:39:51;6.80;91.40
8459;DHT22;4266;48.816;9.154;2024-02-21T00:42:17;6.80;91.40
8459;DHT22;4266;48.816;9.154;2024-02-21T00:44:42;6.80;91.40
8459;DHT22;4266;48.816;9.154;2024-02-21T00:47:09;6.80;91.30
8459;DHT22;4266;48.816;9.154;2024-02-21T00:49:34;6.80;91.20
8459;DHT22;4266;48.816;9.154;2024-02-21T00:52:00;6.80;91.20
8459;DHT22;4266;48.816;9.154;2024-02-21T00:54:26;6.80;91.30
8459;DHT22;4266;48.816;9.154;2024-02-21T00:56:51;6.80;91.20
8459;DHT22;4266;48.816;9.154;2024-02-21T00:59:18;6.80;91.40
8459;DHT22;4266;48.816;9.154;2024-02-21T01:01:43;6.80;91.30
8459;DHT22;4266;48.816;9.154;2024-02-21T01:04:09;6.80;91.30
8459;DHT22;4266;48.816;9.154;2024-02-21T01:06:35;6.70;91.50
8459;DHT22;4266;48.816;9.154;2024-02-21T01:09:01;6.60;91.40
8459;DHT22;4266;48.816;9.154;2024-02-21T01:11:28;6.70;91.50
8459;DHT22;4266;48.816;9.154;2024-02-21T01:13:54;6.60;91.50
8459;DHT22;4266;48.816;9.154;2024-02-21T01:16:19;6.70;91.60
8459;DHT22;4266;48.816;9.154;2024-02-21T01:18:45;6.70;91.60
8459;DHT22;4266;48.816;9.154;2024-02-21T01:21:11;6.60;91.60
8459;DHT22;4266;48.816;9.154;2024-02-21T01:23:37;6.70;91.60
8459;DHT22;4266;48.816;9.154;2024-02-21T01:26:03;6.70;91.50
8459;DHT22;4266;48.816;9.154;2024-02-21T01:28:30;6.70;91.20
8459;DHT22;4266;48.816;9.154;2024-02-21T01:30:55;6.70;91.20
8459;DHT22;4266;48.816;9.154;2024-02-21T01:33:21;6.70;91.40
8459;DHT22;4266;48.816;9.154;2024-02-21T01:35:46;6.60;91.50
8459;DHT22;4266;48.816;9.154;2024-02-21T01:38:12;6.60;91.60
8459;DHT22;4266;48.816;9.154;2024-02-21T01:40:38;6.70;91.50
8459;DHT22;4266;48.816;9.154;2024-02-21T01:43:03;6.70;91.30
8459;DHT22;4266;48.816;9.154;2024-02-21T01:45:29;6.70;91.30
8459;DHT22;4266;48.816;9.154;2024-02-21T01:47:56;6.70;91.20
8459;DHT22;4266;48.816;9.154;2024-02-21T01:50:21;6.70;91.20
8459;DHT22;4266;48.816;9.154;2024-02-21T01:52:47;6.70;91.20
8459;DHT22;4266;48.816;9.154;2024-02-21T01:55:13;6.70;91.20
8459;DHT22;4266;48.816;9.154;2024-02-21T01:57:39;6.70;91.00
8459;DHT22;4266;48.816;9.154;2024-02-21T02:00:05;6.80;91.00
8459;DHT22;4266;48.816;9.154;2024-02-21T02:02:31;6.70;90.80
8459;DHT22;4266;48.816;9.154;2024-02-21T02:04:57;6.80;90.80
8459;DHT22;4266;48.816;9.154;2024-02-21T02:07:23;6.80;90.90
8459;DHT22;4266;48.816;9.154;2024-02-21T02:09:48;6.70;90.80
8459;DHT22;4266;48.816;9.154;2024-02-21T02:12:15;6.80;90.60
8459;DHT22;4266;48.816;9.154;2024-02-21T02:14:40;6.80;90.60
8459;DHT22;4266;48.816;9.154;2024-02-21T02:17:06;6.80;90.70
8459;DHT22;4266;48.816;9.154;2024-02-21T02:19:32;6.80;90.60
8459;DHT22;4266;48.816;9.154;2024-02-21T02:22:00;6.90;90.60
8459;DHT22;4266;48.816;9.154;2024-02-21T02:24:25;6.80;90.40
8459;DHT22;4266;48.816;9.154;2024-02-21T02:26:51;6.80;90.60
8459;DHT22;4266;48.816;9.154;2024-02-21T02:29:16;6.80;90.60
8459;DHT22;4266;48.816;9.154;2024-02-21T02:31:43;6.90;90.40
8459;DHT22;4266;48.816;9.154;2024-02-21T02:34:09;6.90;90.60
8459;DHT22;4266;48.816;9.154;2024-02-21T02:36:35;6.90;90.40
8459;DHT22;4266;48.816;9.154;2024-02-21T02:39:01;6.90;90.60
8459;DHT22;4266;48.816;9.154;2024-02-21T02:41:27;6.90;90.50
8459;DHT22;4266;48.816;9.154;2024-02-21T02:43:53;6.90;90.30
8459;DHT22;4266;48.816;9.154;2024-02-21T02:46:20;7.00;90.50
8459;DHT22;4266;48.816;9.154;2024-02-21T02:48:45;7.00;90.50
8459;DHT22;4266;48.816;9.154;2024-02-21T02:51:11;6.90;90.40
8459;DHT22;4266;48.816;9.154;2024-02-21T02:53:38;7.00;90.50
8459;DHT22;4266;48.816;9.154;2024-02-21T02:56:04;6.90;90.40
8459;DHT22;4266;48.816;9.154;2024-02-21T02:58:31;6.90;90.60
8459;DHT22;4266;48.816;9.154;2024-02-21T03:00:57;6.90;90.80
8459;DHT22;4266;48.816;9.154;2024-02-21T03:03:23;6.80;90.70
8459;DHT22;4266;48.816;9.154;2024-02-21T03:05:48;6.90;90.90
8459;DHT22;4266;48.816;9.154;2024-02-21T03:08:14;6.90;91.10
8459;DHT22;4266;48.816;9.154;2024-02-21T03:10:40;6.80;91.70
8459;DHT22;4266;48.816;9.154;2024-02-21T03:13:05;6.80;92.70
8459;DHT22;4266;48.816;9.154;2024-02-21T03:15:31;6.80;93.20
8459;DHT22;4266;48.816;9.154;2024-02-21T03:17:58;6.70;94.00
8459;DHT22;4266;48.816;9.154;2024-02-21T03:20:23;6.70;94.00
8459;DHT22;4266;48.816;9.154;2024-02-21T03:22:49;6.70;93.60
8459;DHT22;4266;48.816;9.154;2024-02-21T03:25:14;6.80;92.70
8459;DHT22;4266;48.816;9.154;2024-02-21T03:27:40;6.80;92.30
8459;DHT22;4266;48.816;9.154;2024-02-21T03:30:07;6.80;92.10
8459;DHT22;4266;48.816;9.154;2024-02-21T03:32:33;6.80;92.10
8459;DHT22;4266;48.816;9.154;2024-02-21T03:34:59;6.80;91.90
8459;DHT22;4266;48.816;9.154;2024-02-21T03:37:25;6.80;91.70
8459;DHT22;4266;48.816;9.154;2024-02-21T03:39:51;6.80;91.90
8459;DHT22;4266;48.816;9.154;2024-02-21T03:42:17;6.80;92.00
8459;DHT22;4266;48.816;9.154;2024-02-21T03:44:43;6.80;91.90
8459;DHT22;4266;48.816;9.154;2024-02-21T03:47:08;6.70;91.60
8459;DHT22;4266;48.816;9.154;2024-02-21T03:49:34;6.70;91.80
8459;DHT22;4266;48.816;9.154;2024-02-21T03:52:00;6.70;91.80
8459;DHT22;4266;48.816;9.154;2024-02-21T03:54:25;6.70;92.10
8459;DHT22;4266;48.816;9.154;2024-02-21T03:56:51;6.60;92.10
8459;DHT22;4266;48.816;9.154;2024-02-21T03:59:17;6.60;92.10
8459;DHT22;4266;48.816;9.154;2024-02-21T04:01:43;6.60;92.20
8459;DHT22;4266;48.816;9.154;2024-02-21T04:04:10;6.60;92.20
8459;DHT22;4266;48.816;9.154;2024-02-21T04:06:36;6.50;92.20
8459;DHT22;4266;48.816;9.154;2024-02-21T04:09:02;6.50;92.20
8459;DHT22;4266;48.816;9.154;2024-02-21T04:11:28;6.60;92.30
8459;DHT22;4266;48.816;9.154;2024-02-21T04:13:54;6.60;92.30
8459;DHT22;4266;48.816;9.154;2024-02-21T04:16:20;6.50;92.30
8459;DHT22;4266;48.816;9.154;2024-02-21T04:18:45;6.40;92.60
8459;DHT22;4266;48.816;9.154;2024-02-21T04:21:13;6.30;92.80
8459;DHT22;4266;48.816;9.154;2024-02-21T04:23:37;6.30;92.90
8459;DHT22;4266;48.816;9.154;2024-02-21T04:26:03;6.20;92.90
8459;DHT22;4266;48.816;9.154;2024-02-21T04:28:29;6.20;92.90
8459;DHT22;4266;48.816;9.154;2024-02-21T04:30:54;6.20;92.70
8459;DHT22;4266;48.816;9.154;2024-02-21T04:33:20;6.10;93.20
8459;DHT22;4266;48.816;9.154;2024-02-21T04:35:46;6.00;93.50
8459;DHT22;4266;48.816;9.154;2024-02-21T04:38:12;6.00;93.50
8459;DHT22;4266;48.816;9.154;2024-02-21T04:40:38;6.00;93.60
8459;DHT22;4266;48.816;9.154;2024-02-21T04:43:04;6.10;92.70
8459;DHT22;4266;48.816;9.154;2024-02-21T04:45:31;6.20;92.40
8459;DHT22;4266;48.816;9.154;2024-02-21T04:47:56;6.20;92.40
8459;DHT22;4266;48.816;9.154;2024-02-21T04:50:23;6.10;93.00
8459;DHT22;4266;48.816;9.154;2024-02-21T04:52:50;6.00;93.20
8459;DHT22;4266;48.816;9.154;2024-02-21T04:55:15;6.00;93.20
8459;DHT22;4266;48.816;9.154;2024-02-21T04:57:42;5.80;93.50
8459;DHT22;4266;48.816;9.154;2024-02-21T05:00:09;5.70;93.50
8459;DHT22;4266;48.816;9.154;2024-02-21T05:02:35;5.70;93.50
8459;DHT22;4266;48.816;9.154;2024-02-21T05:05:01;5.70;93.20
8459;DHT22;4266;48.816;9.154;2024-02-21T05:07:27;5.70;92.80
8459;DHT22;4266;48.816;9.154;2024-02-21T05:09:54;5.80;92.80
8459;DHT22;4266;48.816;9.154;2024-02-21T05:12:20;5.80;93.00
8459;DHT22;4266;48.816;9.154;2024-02-21T05:14:46;5.80;93.00
8459;DHT22;4266;48.816;9.154;2024-02-21T05:17:12;5.80;93.10
8459;DHT22;4266;48.816;9.154;2024-02-21T05:19:38;5.70;93.80
8459;DHT22;4266;48.816;9.154;2024-02-21T05:22:04;5.70;93.80
8459;DHT22;4266;48.816;9.154;2024-02-21T05:24:30;5.60;94.00
8459;DHT22;4266;48.816;9.154;2024-02-21T05:26:56;5.50;93.70
8459;DHT22;4266;48.816;9.154;2024-02-21T05:29:22;5.50;93.50
8459;DHT22;4266;48.816;9.154;2024-02-21T05:31:57;5.50;93.20
8459;DHT22;4266;48.816;9.154;2024-02-21T05:34:23;5.40;93.40
8459;DHT22;4266;48.816;9.154;2024-02-21T05:36:49;5.40;93.30
8459;DHT22;4266;48.816;9.154;2024-02-21T05:39:15;5.40;93.30
8459;DHT22;4266;48.816;9.154;2024-02-21T05:41:41;5.40;93.10
8459;DHT22;4266;48.816;9.154;2024-02-21T05:44:06;5.50;92.60
8459;DHT22;4266;48.816;9.154;2024-02-21T05:46:33;5.50;92.60
8459;DHT22;4266;48.816;9.154;2024-02-21T05:48:58;5.40;92.60
8459;DHT22;4266;48.816;9.154;2024-02-21T05:51:24;5.50;92.30
8459;DHT22;4266;48.816;9.154;2024-02-21T05:53:50;5.50;92.20
8459;DHT22;4266;48.816;9.154;2024-02-21T05:56:16;5.50;91.80
8459;DHT22;4266;48.816;9.154;2024-02-21T05:58:43;5.50;91.70
8459;DHT22;4266;48.816;9.154;2024-02-21T06:01:08;5.50;91.70
8459;DHT22;4266;48.816;9.154;2024-02-21T06:03:35;5.40;91.80
8459;DHT22;4266;48.816;9.154;2024-02-21T06:06:00;5.40;91.90
8459;DHT22;4266;48.816;9.154;2024-02-21T06:08:26;5.40;91.80
8459;DHT22;4266;48.816;9.154;2024-02-21T06:10:52;5.40;91.50
8459;DHT22;4266;48.816;9.154;2024-02-21T06:13:18;5.40;91.60
8459;DHT22;4266;48.816;9.154;2024-02-21T06:15:44;5.40;91.60
8459;DHT22;4266;48.816;9.154;2024-02-21T06:18:11;5.40;91.20
8459;DHT22;4266;48.816;9.154;2024-02-21T06:20:36;5.40;91.20
8459;DHT22;4266;48.816;9.154;2024-02-21T06:23:03;5.50;91.00
8459;DHT22;4266;48.816;9.154;2024-02-21T06:25:29;5.50;91.00
8459;DHT22;4266;48.816;9.154;2024-02-21T06:27:54;5.60;90.80
8459;DHT22;4266;48.816;9.154;2024-02-21T06:30:20;5.60;90.60
8459;DHT22;4266;48.816;9.154;2024-02-21T06:32:46;5.70;90.60
8459;DHT22;4266;48.816;9.154;2024-02-21T06:35:12;5.80;90.70
8459;DHT22;4266;48.816;9.154;2024-02-21T06:37:39;6.30;90.30
8459;DHT22;4266;48.816;9.154;2024-02-21T06:40:06;7.00;88.90
8459;DHT22;4266;48.816;9.154;2024-02-21T06:42:32;7.00;88.90
8459;DHT22;4266;48.816;9.154;2024-02-21T06:44:58;7.50;86.60
8459;DHT22;4266;48.816;9.154;2024-02-21T06:47:24;7.70;85.70
8459;DHT22;4266;48.816;9.154;2024-02-21T06:49:50;7.30;84.20
8459;DHT22;4266;48.816;9.154;2024-02-21T06:52:17;7.20;85.30
8459;DHT22;4266;48.816;9.154;2024-02-21T06:54:41;7.10;84.70
8459;DHT22;4266;48.816;9.154;2024-02-21T06:57:07;8.30;83.30
8459;DHT22;4266;48.816;9.154;2024-02-21T06:59:34;9.90;78.80
8459;DHT22;4266;48.816;9.154;2024-02-21T07:01:59;9.90;78.80
8459;DHT22;4266;48.816;9.154;2024-02-21T07:04:26;9.70;76.00
8459;DHT22;4266;48.816;9.154;2024-02-21T07:06:51;9.70;76.00
8459;DHT22;4266;48.816;9.154;2024-02-21T07:09:17;9.50;75.20
8459;DHT22;4266;48.816;9.154;2024-02-21T07:11:43;9.70;73.90
8459;DHT22;4266;48.816;9.154;2024-02-21T07:14:09;9.60;73.80
8459;DHT22;4266;48.816;9.154;2024-02-21T07:16:35;9.60;73.70
8459;DHT22;4266;48.816;9.154;2024-02-21T07:19:01;9.90;72.80
8459;DHT22;4266;48.816;9.154;2024-02-21T07:21:27;10.30;69.60
8459;DHT22;4266;48.816;9.154;2024-02-21T07:23:53;10.30;69.60
8459;DHT22;4266;48.816;9.154;2024-02-21T07:26:19;11.20;67.50
8459;DHT22;4266;48.816;9.154;2024-02-21T07:28:45;11.20;67.40
8459;DHT22;4266;48.816;9.154;2024-02-21T07:31:10;11.80;65.80
8459;DHT22;4266;48.816;9.154;2024-02-21T07:33:36;12.30;63.10
8459;DHT22;4266;48.816;9.154;2024-02-21T07:36:05;12.40;61.60
8459;DHT22;4266;48.816;9.154;2024-02-21T07:38:28;12.70;60.00
8459;DHT22;4266;48.816;9.154;2024-02-21T07:40:54;13.60;58.00
8459;DHT22;4266;48.816;9.154;2024-02-21T07:43:20;13.50;58.10
8459;DHT22;4266;48.816;9.154;2024-02-21T07:45:46;13.50;56.90
8459;DHT22;4266;48.816;9.154;2024-02-21T07:48:12;13.00;56.00
8459;DHT22;4266;48.816;9.154;2024-02-21T07:50:38;13.00;56.00
8459;DHT22;4266;48.816;9.154;2024-02-21T07:53:04;13.50;55.80
8459;DHT22;4266;48.816;9.154;2024-02-21T07:55:30;13.50;55.70
8459;DHT22;4266;48.816;9.154;2024-02-21T07:57:55;13.30;55.50
8459;DHT22;4266;48.816;9.154;2024-02-21T08:00:22;13.20;55.00
8459;DHT22;4266;48.816;9.154;2024-02-21T08:02:48;13.30;54.90
8459;DHT22;4266;48.816;9.154;2024-02-21T08:05:14;13.30;54.80
8459;DHT22;4266;48.816;9.154;2024-02-21T08:07:40;13.40;54.20
8459;DHT22;4266;48.816;9.154;2024-02-21T08:10:07;13.40;54.20
8459;DHT22;4266;48.816;9.154;2024-02-21T08:12:34;13.60;54.90
8459;DHT22;4266;48.816;9.154;2024-02-21T08:14:59;13.60;54.60
8459;DHT22;4266;48.816;9.154;2024-02-21T08:17:26;14.30;53.60
8459;DHT22;4266;48.816;9.154;2024-02-21T08:19:51;14.30;53.60
8459;DHT22;4266;48.816;9.154;2024-02-21T08:22:17;14.40;53.70
8459;DHT22;4266;48.816;9.154;2024-02-21T08:24:43;14.10;52.70
8459;DHT22;4266;48.816;9.154;2024-02-21T08:27:09;14.20;52.80
8459;DHT22;4266;48.816;9.154;2024-02-21T08:29:35;14.20;52.60
8459;DHT22;4266;48.816;9.154;2024-02-21T08:32:01;14.10;52.20
8459;DHT22;4266;48.816;9.154;2024-02-21T08:34:27;14.50;52.10
8459;DHT22;4266;48.816;9.154;2024-02-21T08:36:52;14.40;51.80
8459;DHT22;4266;48.816;9.154;2024-02-21T08:39:19;14.20;52.00
8459;DHT22;4266;48.816;9.154;2024-02-21T08:41:44;14.20;51.90
8459;DHT22;4266;48.816;9.154;2024-02-21T08:44:11;13.70;51.50
8459;DHT22;4266;48.816;9.154;2024-02-21T08:46:37;13.60;51.40
8459;DHT22;4266;48.816;9.154;2024-02-21T08:49:03;13.60;51.40
8459;DHT22;4266;48.816;9.154;2024-02-21T08:51:30;12.70;52.10
8459;DHT22;4266;48.816;9.154;2024-02-21T08:53:55;12.70;52.10
8459;DHT22;4266;48.816;9.154;2024-02-21T08:56:22;12.30;52.30
8459;DHT22;4266;48.816;9.154;2024-02-21T08:58:48;12.20;52.20
8459;DHT22;4266;48.816;9.154;2024-02-21T09:01:14;12.20;52.20
8459;DHT22;4266;48.816;9.154;2024-02-21T09:03:40;12.00;52.40
8459;DHT22;4266;48.816;9.154;2024-02-21T09:06:06;11.90;52.30
8459;DHT22;4266;48.816;9.154;2024-02-21T09:08:32;12.00;52.60
8459;DHT22;4266;48.816;9.154;2024-02-21T09:10:57;12.10;52.80
8459;DHT22;4266;48.816;9.154;2024-02-21T09:13:23;12.40;52.90
8459;DHT22;4266;48.816;9.154;2024-02-21T09:15:49;12.60;52.90
8459;DHT22;4266;48.816;9.154;2024-02-21T09:18:15;12.50;52.30
8459;DHT22;4266;48.816;9.154;2024-02-21T09:20:40;12.50;52.80
8459;DHT22;4266;48.816;9.154;2024-02-21T09:23:06;12.60;52.50
8459;DHT22;4266;48.816;9.154;2024-02-21T09:25:32;12.60;52.50
8459;DHT22;4266;48.816;9.154;2024-02-21T09:27:57;12.80;52.00
8459;DHT22;4266;48.816;9.154;2024-02-21T09:30:24;13.20;52.20
8459;DHT22;4266;48.816;9.154;2024-02-21T09:32:50;13.20;52.20
8459;DHT22;4266;48.816;9.154;2024-02-21T09:35:16;14.10;51.40
8459;DHT22;4266;48.816;9.154;2024-02-21T09:37:42;14.10;51.40
8459;DHT22;4266;48.816;9.154;2024-02-21T09:40:08;14.40;51.60
8459;DHT22;4266;48.816;9.154;2024-02-21T09:42:37;15.30;50.70
8459;DHT22;4266;48.816;9.154;2024-02-21T09:45:04;16.30;49.60
8459;DHT22;4266;48.816;9.154;2024-02-21T09:47:34;16.30;49.60
8459;DHT22;4266;48.816;9.154;2024-02-21T09:49:56;17.60;49.00
8459;DHT22;4266;48.816;9.154;2024-02-21T09:52:22;17.90;47.90
8459;DHT22;4266;48.816;9.154;2024-02-21T09:54:48;17.70;47.90
8459;DHT22;4266;48.816;9.154;2024-02-21T09:57:14;17.40;47.40
8459;DHT22;4266;48.816;9.154;2024-02-21T09:59:39;18.00;47.00
8459;DHT22;4266;48.816;9.154;2024-02-21T10:02:05;18.20;46.50
8459;DHT22;4266;48.816;9.154;2024-02-21T10:04:31;18.70;46.40
8459;DHT22;4266;48.816;9.154;2024-02-21T10:06:56;18.70;45.50
8459;DHT22;4266;48.816;9.154;2024-02-21T10:09:24;19.10;45.20
8459;DHT22;4266;48.816;9.154;2024-02-21T10:11:50;19.10;45.20
8459;DHT22;4266;48.816;9.154;2024-02-21T10:14:16;18.60;45.50
8459;DHT22;4266;48.816;9.154;2024-02-21T10:16:42;18.50;45.10
8459;DHT22;4266;48.816;9.154;2024-02-21T10:19:15;18.80;44.80
8459;DHT22;4266;48.816;9.154;2024-02-21T10:21:33;18.70;44.40
8459;DHT22;4266;48.816;9.154;2024-02-21T10:24:00;18.00;44.10
8459;DHT22;4266;48.816;9.154;2024-02-21T10:26:26;18.00;44.10
8459;DHT22;4266;48.816;9.154;2024-02-21T10:28:52;17.30;44.40
8459;DHT22;4266;48.816;9.154;2024-02-21T10:31:23;17.20;44.30
8459;DHT22;4266;48.816;9.154;2024-02-21T10:33:55;17.60;44.20
8459;DHT22;4266;48.816;9.154;2024-02-21T10:36:20;17.90;43.70
8459;DHT22;4266;48.816;9.154;2024-02-21T10:38:46;17.60;43.60
8459;DHT22;4266;48.816;9.154;2024-02-21T10:41:13;17.60;43.60
8459;DHT22;4266;48.816;9.154;2024-02-21T10:43:38;16.40;43.80
8459;DHT22;4266;48.816;9.154;2024-02-21T10:46:03;15.80;44.10
8459;DHT22;4266;48.816;9.154;2024-02-21T10:48:31;16.20;44.00
8459;DHT22;4266;48.816;9.154;2024-02-21T10:50:57;15.70;44.10
8459;DHT22;4266;48.816;9.154;2024-02-21T10:53:32;15.70;44.10
8459;DHT22;4266;48.816;9.154;2024-02-21T10:55:58;15.40;43.90
8459;DHT22;4266;48.816;9.154;2024-02-21T10:58:23;15.20;44.00
8459;DHT22;4266;48.816;9.154;2024-02-21T11:00:49;15.10;43.90
8459;DHT22;4266;48.816;9.154;2024-02-21T11:03:14;15.80;44.50
8459;DHT22;4266;48.816;9.154;2024-02-21T11:05:40;15.90;44.50
8459;DHT22;4266;48.816;9.154;2024-02-21T11:08:06;15.90;44.60
8459;DHT22;4266;48.816;9.154;2024-02-21T11:10:32;16.20;43.30
8459;DHT22;4266;48.816;9.154;2024-02-21T11:13:06;16.70;43.50
8459;DHT22;4266;48.816;9.154;2024-02-21T11:15:30;16.60;43.40
8459;DHT22;4266;48.816;9.154;2024-02-21T11:17:56;17.30;41.90
8459;DHT22;4266;48.816;9.154;2024-02-21T11:20:31;17.80;43.40
8459;DHT22;4266;48.816;9.154;2024-02-21T11:22:49;18.10;41.90
8459;DHT22;4266;48.816;9.154;2024-02-21T11:25:21;17.90;41.90
8459;DHT22;4266;48.816;9.154;2024-02-21T11:27:45;17.10;42.10
8459;DHT22;4266;48.816;9.154;2024-02-21T11:30:11;17.10;42.00
8459;DHT22;4266;48.816;9.154;2024-02-21T11:32:37;16.70;41.70
8459;DHT22;4266;48.816;9.154;2024-02-21T11:35:04;17.40;42.30
8459;DHT22;4266;48.816;9.154;2024-02-21T11:37:31;17.30;42.20
8459;DHT22;4266;48.816;9.154;2024-02-21T11:39:57;17.60;41.70
8459;DHT22;4266;48.816;9.154;2024-02-21T11:42:24;17.30;41.90
8459;DHT22;4266;48.816;9.154;2024-02-21T11:44:50;16.90;41.00
8459;DHT22;4266;48.816;9.154;2024-02-21T11:47:15;16.80;40.90
8459;DHT22;4266;48.816;9.154;2024-02-21T11:49:46;16.80;40.70
8459;DHT22;4266;48.816;9.154;2024-02-21T11:52:12;17.00;41.20
8459;DHT22;4266;48.816;9.154;2024-02-21T11:54:38;17.00;41.20
8459;DHT22;4266;48.816;9.154;2024-02-21T11:57:04;16.90;41.60
8459;DHT22;4266;48.816;9.154;2024-02-21T11:59:30;16.80;41.70
8459;DHT22;4266;48.816;9.154;2024-02-21T12:01:55;16.70;41.20
8459;DHT22;4266;48.816;9.154;2024-02-21T12:04:22;16.50;41.10
8459;DHT22;4266;48.816;9.154;2024-02-21T12:06:48;16.60;41.10
8459;DHT22;4266;48.816;9.154;2024-02-21T12:09:14;16.60;41.00
8459;DHT22;4266;48.816;9.154;2024-02-21T12:11:39;16.30;40.70
8459;DHT22;4266;48.816;9.154;2024-02-21T12:14:05;16.10;40.80
8459;DHT22;4266;48.816;9.154;2024-02-21T12:16:32;15.90;40.20
8459;DHT22;4266;48.816;9.154;2024-02-21T12:18:58;16.50;41.50
8459;DHT22;4266;48.816;9.154;2024-02-21T12:21:24;16.50;41.50
8459;DHT22;4266;48.816;9.154;2024-02-21T12:23:49;16.50;40.90
8459;DHT22;4266;48.816;9.154;2024-02-21T12:26:15;17.00;40.70
8459;DHT22;4266;48.816;9.154;2024-02-21T12:28:41;17.00;40.70
8459;DHT22;4266;48.816;9.154;2024-02-21T12:31:06;16.60;41.10
8459;DHT22;4266;48.816;9.154;2024-02-21T12:33:33;16.80;40.60
8459;DHT22;4266;48.816;9.154;2024-02-21T12:35:58;16.90;40.70
8459;DHT22;4266;48.816;9.154;2024-02-21T12:38:25;16.50;40.80
8459;DHT22;4266;48.816;9.154;2024-02-21T12:40:51;16.50;40.80
8459;DHT22;4266;48.816;9.154;2024-02-21T12:43:17;16.90;40.60
8459;DHT22;4266;48.816;9.154;2024-02-21T12:45:43;16.80;40.50
8459;DHT22;4266;48.816;9.154;2024-02-21T12:48:09;16.90;40.90
8459;DHT22;4266;48.816;9.154;2024-02-21T12:50:35;17.10;41.00
8459;DHT22;4266;48.816;9.154;2024-02-21T12:53:01;17.10;41.00
8459;DHT22;4266;48.816;9.154;2024-02-21T12:55:26;17.00;40.70
8459;DHT22;4266;48.816;9.154;2024-02-21T12:57:52;16.90;41.30
8459;DHT22;4266;48.816;9.154;2024-02-21T13:00:18;16.60;40.50
8459;DHT22;4266;48.816;9.154;2024-02-21T13:02:44;16.60;40.50
8459;DHT22;4266;48.816;9.154;2024-02-21T13:05:10;16.30;40.80
8459;DHT22;4266;48.816;9.154;2024-02-21T13:07:36;16.40;40.20
8459;DHT22;4266;48.816;9.154;2024-02-21T13:10:01;16.50;40.60
8459;DHT22;4266;48.816;9.154;2024-02-21T13:12:27;16.50;41.10
8459;DHT22;4266;48.816;9.154;2024-02-21T13:14:53;16.50;40.30
8459;DHT22;4266;48.816;9.154;2024-02-21T13:17:19;16.40;40.20
8459;DHT22;4266;48.816;9.154;2024-02-21T13:19:46;16.30;40.50
8459;DHT22;4266;48.816;9.154;2024-02-21T13:22:11;16.30;40.80
8459;DHT22;4266;48.816;9.154;2024-02-21T13:24:38;15.70;40.40
8459;DHT22;4266;48.816;9.154;2024-02-21T13:27:04;16.10;40.50
8459;DHT22;4266;48.816;9.154;2024-02-21T13:29:30;16.10;40.50
8459;DHT22;4266;48.816;9.154;2024-02-21T13:31:56;16.00;40.60
8459;DHT22;4266;48.816;9.154;2024-02-21T13:34:21;16.10;40.70
8459;DHT22;4266;48.816;9.154;2024-02-21T13:36:48;15.70;40.30
8459;DHT22;4266;48.816;9.154;2024-02-21T13:39:14;15.70;40.30
8459;DHT22;4266;48.816;9.154;2024-02-21T13:41:39;15.70;40.30
8459;DHT22;4266;48.816;9.154;2024-02-21T13:44:06;15.20;40.80
8459;DHT22;4266;48.816;9.154;2024-02-21T13:46:32;15.10;40.30
8459;DHT22;4266;48.816;9.154;2024-02-21T13:51:33;15.10;40.30
8459;DHT22;4266;48.816;9.154;2024-02-21T13:53:59;14.90;40.10
8459;DHT22;4266;48.816;9.154;2024-02-21T13:56:25;14.90;40.10
8459;DHT22;4266;48.816;9.154;2024-02-21T13:58:51;15.00;39.90
8459;DHT22;4266;48.816;9.154;2024-02-21T14:01:16;14.70;40.00
8459;DHT22;4266;48.816;9.154;2024-02-21T14:03:42;14.60;39.70
8459;DHT22;4266;48.816;9.154;2024-02-21T14:06:08;14.50;40.00
8459;DHT22;4266;48.816;9.154;2024-02-21T14:08:34;14.60;39.80
8459;DHT22;4266;48.816;9.154;2024-02-21T14:11:00;14.60;39.80
8459;DHT22;4266;48.816;9.154;2024-02-21T14:13:26;14.70;39.80
8459;DHT22;4266;48.816;9.154;2024-02-21T14:15:52;14.70;39.10
8459;DHT22;4266;48.816;9.154;2024-02-21T14:18:18;14.60;39.40
8459;DHT22;4266;48.816;9.154;2024-02-21T14:20:43;14.70;39.70
8459;DHT22;4266;48.816;9.154;2024-02-21T14:23:09;14.80;39.80
8459;DHT22;4266;48.816;9.154;2024-02-21T14:25:35;14.50;39.60
8459;DHT22;4266;48.816;9.154;2024-02-21T14:28:00;14.60;39.40
8459;DHT22;4266;48.816;9.154;2024-02-21T14:30:27;14.60;39.30
8459;DHT22;4266;48.816;9.154;2024-02-21T14:32:53;14.60;39.20
8459;DHT22;4266;48.816;9.154;2024-02-21T14:35:19;14.40;39.00
8459;DHT22;4266;48.816;9.154;2024-02-21T14:37:45;14.40;39.20
8459;DHT22;4266;48.816;9.154;2024-02-21T14:40:11;14.30;39.20
8459;DHT22;4266;48.816;9.154;2024-02-21T14:42:37;14.40;39.10
8459;DHT22;4266;48.816;9.154;2024-02-21T14:45:04;14.40;39.30
8459;DHT22;4266;48.816;9.154;2024-02-21T14:47:30;14.40;39.40
8459;DHT22;4266;48.816;9.154;2024-02-21T14:49:55;14.30;39.10
8459;DHT22;4266;48.816;9.154;2024-02-21T14:52:21;14.40;38.80
8459;DHT22;4266;48.816;9.154;2024-02-21T14:54:48;14.10;38.70
8459;DHT22;4266;48.816;9.154;2024-02-21T14:57:13;14.10;38.40
8459;DHT22;4266;48.816;9.154;2024-02-21T14:59:40;14.00;38.60
8459;DHT22;4266;48.816;9.154;2024-02-21T15:02:06;13.90;38.20
8459;DHT22;4266;48.816;9.154;2024-02-21T15:04:31;13.90;38.20
8459;DHT22;4266;48.816;9.154;2024-02-21T15:06:57;13.90;38.70
8459;DHT22;4266;48.816;9.154;2024-02-21T15:09:23;13.80;38.70
8459;DHT22;4266;48.816;9.154;2024-02-21T15:11:49;13.80;38.60
8459;DHT22;4266;48.816;9.154;2024-02-21T15:14:15;13.60;38.20
8459;DHT22;4266;48.816;9.154;2024-02-21T15:16:40;13.60;38.10
8459;DHT22;4266;48.816;9.154;2024-02-21T15:19:06;13.60;37.60
8459;DHT22;4266;48.816;9.154;2024-02-21T15:21:32;13.50;38.00
8459;DHT22;4266;48.816;9.154;2024-02-21T15:23:57;13.50;37.90
8459;DHT22;4266;48.816;9.154;2024-02-21T15:26:23;13.40;37.80
8459;DHT22;4266;48.816;9.154;2024-02-21T15:28:49;13.40;37.80
8459;DHT22;4266;48.816;9.154;2024-02-21T15:31:21;13.40;37.90
8459;DHT22;4266;48.816;9.154;2024-02-21T15:33:46;13.20;37.70
8459;DHT22;4266;48.816;9.154;2024-02-21T15:36:12;13.20;37.60
8459;DHT22;4266;48.816;9.154;2024-02-21T15:38:38;13.40;37.50
8459;DHT22;4266;48.816;9.154;2024-02-21T15:41:04;13.40;37.50
8459;DHT22;4266;48.816;9.154;2024-02-21T15:43:30;13.40;37.90
8459;DHT22;4266;48.816;9.154;2024-02-21T15:45:56;13.40;37.90
8459;DHT22;4266;48.816;9.154;2024-02-21T15:48:22;13.30;37.60
8459;DHT22;4266;48.816;9.154;2024-02-21T15:50:48;13.30;37.60
8459;DHT22;4266;48.816;9.154;2024-02-21T15:53:14;13.20;37.40
8459;DHT22;4266;48.816;9.154;2024-02-21T15:55:39;13.10;37.60
8459;DHT22;4266;48.816;9.154;2024-02-21T15:58:06;13.10;38.10
8459;DHT22;4266;48.816;9.154;2024-02-21T16:00:31;13.00;38.00
8459;DHT22;4266;48.816;9.154;2024-02-21T16:02:57;13.00;38.40